createdAt,value
2017-10-04T00:01:14.052Z,12.80
2017-10-04T00:03:41.662Z,12.80
2017-10-04T00:06:09.301Z,12.70
2017-10-04T00:08:36.911Z,12.80
2017-10-04T00:11:04.549Z,12.60
2017-10-04T00:13:32.912Z,12.60
2017-10-04T00:16:00.545Z,12.60
2017-10-04T00:18:28.163Z,12.60
2017-10-04T00:20:55.802Z,12.60
2017-10-04T00:23:23.396Z,12.70
2017-10-04T00:25:51.027Z,12.80
2017-10-04T00:28:18.632Z,12.90
2017-10-04T00:30:46.285Z,12.80
2017-10-04T00:33:13.880Z,12.70
2017-10-04T00:35:42.271Z,12.80
2017-10-04T00:38:09.889Z,12.80
2017-10-04T00:40:37.505Z,12.70
2017-10-04T00:43:05.998Z,12.80
2017-10-04T00:45:34.394Z,12.70
2017-10-04T00:48:02.007Z,12.80
2017-10-04T00:50:29.635Z,12.80
2017-10-04T00:52:57.246Z,12.70
2017-10-04T00:55:24.861Z,12.70
2017-10-04T00:57:52.520Z,12.70
2017-10-04T01:00:20.137Z,12.70
2017-10-04T01:02:47.760Z,12.70
2017-10-04T01:05:15.384Z,12.60
2017-10-04T01:07:43.038Z,12.50
2017-10-04T01:10:11.405Z,12.60
2017-10-04T01:12:39.837Z,12.70
2017-10-04T01:15:07.476Z,12.70
2017-10-04T01:17:35.092Z,12.80
2017-10-04T01:20:02.692Z,12.70
2017-10-04T01:22:30.329Z,12.70
2017-10-04T01:24:58.704Z,12.70
2017-10-04T01:27:27.111Z,12.80
2017-10-04T01:29:54.721Z,12.80
2017-10-04T01:32:22.373Z,12.80
2017-10-04T01:34:49.972Z,12.90
2017-10-04T01:37:18.380Z,12.60
2017-10-04T01:39:45.992Z,12.60
2017-10-04T01:42:13.613Z,12.50
2017-10-04T01:44:41.216Z,12.80
2017-10-04T01:47:08.847Z,12.90
2017-10-04T01:49:36.447Z,12.80
2017-10-04T01:52:04.041Z,12.60
2017-10-04T01:54:32.444Z,12.60
2017-10-04T01:57:00.052Z,12.60
2017-10-04T01:59:28.447Z,12.70
2017-10-04T02:01:56.062Z,12.70
2017-10-04T02:04:23.693Z,12.70
2017-10-04T02:06:51.303Z,12.70
2017-10-04T02:09:18.922Z,12.70
2017-10-04T02:11:47.433Z,12.60
2017-10-04T02:14:15.054Z,12.70
2017-10-04T02:16:42.661Z,12.80
2017-10-04T02:19:10.287Z,12.80
2017-10-04T02:21:37.913Z,12.70
2017-10-04T02:24:06.302Z,12.80
2017-10-04T02:26:33.904Z,12.80
2017-10-04T02:29:01.923Z,12.80
2017-10-04T02:31:29.703Z,12.80
2017-10-04T02:33:58.090Z,12.80
2017-10-04T02:36:25.715Z,12.80
2017-10-04T02:38:54.112Z,12.80
2017-10-04T02:41:21.727Z,12.80
2017-10-04T02:43:49.342Z,12.90
2017-10-04T02:46:16.981Z,12.80
2017-10-04T02:48:45.345Z,12.90
2017-10-04T02:51:12.989Z,12.90
2017-10-04T02:53:40.589Z,12.90
2017-10-04T02:56:08.976Z,12.80
2017-10-04T02:58:36.596Z,12.80
2017-10-04T03:01:04.234Z,12.80
2017-10-04T03:03:31.857Z,12.90
2017-10-04T03:06:00.241Z,12.80
2017-10-04T03:08:27.861Z,12.80
2017-10-04T03:10:56.294Z,12.90
2017-10-04T03:13:23.884Z,12.90
2017-10-04T03:15:51.515Z,12.80
2017-10-04T03:18:19.101Z,12.80
2017-10-04T03:20:46.730Z,12.80
2017-10-04T03:23:14.330Z,12.70
2017-10-04T03:25:41.955Z,12.70
2017-10-04T03:28:09.912Z,12.80
2017-10-04T03:30:38.300Z,12.90
2017-10-04T03:33:05.933Z,12.80
2017-10-04T03:35:33.590Z,13.00
2017-10-04T03:38:01.190Z,12.90
2017-10-04T03:40:28.810Z,12.90
2017-10-04T03:42:56.434Z,12.90
2017-10-04T03:45:24.036Z,12.90
2017-10-04T03:47:52.433Z,13.00
2017-10-04T03:50:20.036Z,13.00
2017-10-04T03:52:47.656Z,13.10
2017-10-04T03:55:15.252Z,13.10
2017-10-04T03:57:42.883Z,13.20
2017-10-04T04:00:10.509Z,13.10
2017-10-04T04:02:38.136Z,13.00
2017-10-04T04:05:06.124Z,13.00
2017-10-04T04:07:33.759Z,13.00
2017-10-04T04:10:01.368Z,13.00
2017-10-04T04:12:28.990Z,13.00
2017-10-04T04:14:56.590Z,12.90
2017-10-04T04:17:24.227Z,12.90
2017-10-04T04:19:51.821Z,13.00
2017-10-04T04:22:20.217Z,12.90
2017-10-04T04:24:47.838Z,12.90
2017-10-04T04:27:15.496Z,12.90
2017-10-04T04:29:44.626Z,12.90
2017-10-04T04:32:12.988Z,13.00
2017-10-04T04:34:40.615Z,13.00
2017-10-04T04:37:08.237Z,12.90
2017-10-04T04:39:35.853Z,12.90
2017-10-04T04:42:03.446Z,12.90
2017-10-04T04:44:32.419Z,12.80
2017-10-04T04:47:00.029Z,12.80
2017-10-04T04:49:27.682Z,12.60
2017-10-04T04:51:55.505Z,12.60
2017-10-04T04:54:23.128Z,12.70
2017-10-04T04:56:50.737Z,12.50
2017-10-04T04:59:19.192Z,12.50
2017-10-04T05:01:46.809Z,12.60
2017-10-04T05:04:15.318Z,12.70
2017-10-04T05:06:43.033Z,12.70
2017-10-04T05:09:11.980Z,12.90
2017-10-04T05:11:39.715Z,12.90
2017-10-04T05:14:07.352Z,12.80
2017-10-04T05:16:35.745Z,12.60
2017-10-04T05:19:03.956Z,12.60
2017-10-04T05:21:31.561Z,12.60
2017-10-04T05:23:59.209Z,12.60
2017-10-04T05:26:26.815Z,12.60
2017-10-04T05:28:54.430Z,12.70
2017-10-04T05:31:23.304Z,12.80
2017-10-04T05:33:50.902Z,12.80
2017-10-04T05:36:18.665Z,12.80
2017-10-04T05:38:46.309Z,12.70
2017-10-04T05:41:14.766Z,12.50
2017-10-04T05:43:42.377Z,12.50
2017-10-04T05:46:10.774Z,12.50
2017-10-04T05:48:38.365Z,12.50
2017-10-04T05:51:06.325Z,12.40
2017-10-04T05:53:33.936Z,12.50
2017-10-04T05:56:01.726Z,12.50
2017-10-04T05:58:29.317Z,12.50
2017-10-04T06:00:56.939Z,12.40
2017-10-04T06:03:24.575Z,12.40
2017-10-04T06:05:52.197Z,12.50
2017-10-04T06:08:19.799Z,12.60
2017-10-04T06:10:47.426Z,12.70
2017-10-04T06:13:15.025Z,12.70
2017-10-04T06:15:42.657Z,12.70
2017-10-04T06:18:10.239Z,12.70
2017-10-04T06:20:37.876Z,12.60
2017-10-04T06:23:05.585Z,12.70
2017-10-04T06:25:33.965Z,12.70
2017-10-04T06:28:01.616Z,12.70
2017-10-04T06:30:29.232Z,12.70
2017-10-04T06:32:56.848Z,12.70
2017-10-04T06:35:25.218Z,13.00
2017-10-04T06:37:53.597Z,13.10
2017-10-04T06:40:21.964Z,13.10
2017-10-04T06:42:49.582Z,13.10
2017-10-04T06:45:17.184Z,13.20
2017-10-04T06:47:44.818Z,13.10
2017-10-04T06:50:12.418Z,13.20
2017-10-04T06:52:40.068Z,13.30
2017-10-04T06:55:07.821Z,13.50
2017-10-04T06:57:35.441Z,13.40
2017-10-04T07:00:03.235Z,13.40
2017-10-04T07:02:30.913Z,13.70
2017-10-04T07:04:58.520Z,14.00
2017-10-04T07:07:26.960Z,14.30
2017-10-04T07:09:54.559Z,14.60
2017-10-04T07:12:22.217Z,15.10
2017-10-04T07:14:49.810Z,15.20
2017-10-04T07:17:17.444Z,15.60
2017-10-04T07:19:45.850Z,16.40
2017-10-04T07:22:14.200Z,17.10
2017-10-04T07:24:41.826Z,17.40
2017-10-04T07:27:09.446Z,17.70
2017-10-04T07:29:37.079Z,17.80
2017-10-04T07:32:04.691Z,17.60
2017-10-04T07:34:32.308Z,18.30
2017-10-04T07:36:59.927Z,19.00
2017-10-04T07:39:27.549Z,19.40
2017-10-04T07:41:56.014Z,19.40
2017-10-04T07:44:23.644Z,19.10
2017-10-04T07:46:52.019Z,17.80
2017-10-04T07:49:19.844Z,17.80
2017-10-04T07:51:47.442Z,17.20
2017-10-04T07:54:15.077Z,16.60
2017-10-04T07:56:42.684Z,16.30
2017-10-04T07:59:10.325Z,15.90
2017-10-04T08:01:37.966Z,15.60
2017-10-04T08:04:05.742Z,15.50
2017-10-04T08:06:33.417Z,15.10
2017-10-04T08:09:02.207Z,14.70
2017-10-04T08:11:30.672Z,14.70
2017-10-04T08:13:58.992Z,14.80
2017-10-04T08:16:27.034Z,14.90
2017-10-04T08:18:55.429Z,14.80
2017-10-04T08:21:23.032Z,14.80
2017-10-04T08:23:50.653Z,14.70
2017-10-04T08:26:18.256Z,14.70
2017-10-04T08:28:45.872Z,14.70
2017-10-04T08:31:13.500Z,14.80
2017-10-04T08:33:41.141Z,14.80
2017-10-04T08:36:08.745Z,14.70
2017-10-04T08:38:37.141Z,14.70
2017-10-04T08:41:04.760Z,14.70
2017-10-04T08:43:33.088Z,14.60
2017-10-04T08:46:00.718Z,14.50
2017-10-04T08:48:37.978Z,14.50
2017-10-04T08:51:05.604Z,14.50
2017-10-04T08:53:33.222Z,14.50
2017-10-04T08:56:01.629Z,14.50
2017-10-04T08:58:29.401Z,14.50
2017-10-04T09:00:57.032Z,14.50
2017-10-04T09:03:26.312Z,14.60
2017-10-04T09:06:02.813Z,14.50
2017-10-04T09:08:31.167Z,14.40
2017-10-04T09:10:59.719Z,14.40
2017-10-04T09:13:27.330Z,14.40
2017-10-04T09:15:55.717Z,14.50
2017-10-04T09:18:23.329Z,14.40
2017-10-04T09:20:50.982Z,14.60
2017-10-04T09:23:18.569Z,14.50
2017-10-04T09:25:46.377Z,14.50
2017-10-04T09:28:14.258Z,14.40
2017-10-04T09:30:41.939Z,14.50
2017-10-04T09:33:09.555Z,14.40
2017-10-04T09:35:37.177Z,14.40
2017-10-04T09:38:04.828Z,14.60
2017-10-04T09:40:32.425Z,14.60
2017-10-04T09:43:00.812Z,14.80
2017-10-04T09:45:28.440Z,14.70
2017-10-04T09:47:56.100Z,14.80
2017-10-04T09:50:23.730Z,14.80
2017-10-04T09:52:51.432Z,14.70
2017-10-04T09:55:19.055Z,14.70
2017-10-04T09:57:46.685Z,14.70
2017-10-04T10:00:15.053Z,14.70
2017-10-04T10:02:43.446Z,14.80
2017-10-04T10:05:11.045Z,14.70
2017-10-04T10:07:38.688Z,14.70
2017-10-04T10:10:07.106Z,14.80
2017-10-04T10:12:40.784Z,14.80
2017-10-04T10:15:08.421Z,14.80
2017-10-04T10:17:36.712Z,14.90
2017-10-04T10:20:04.780Z,15.00
2017-10-04T10:22:32.413Z,14.90
2017-10-04T10:25:00.785Z,15.10
2017-10-04T10:27:28.433Z,15.00
2017-10-04T10:29:56.024Z,15.20
2017-10-04T10:32:24.407Z,15.30
2017-10-04T10:34:52.015Z,15.30
2017-10-04T10:37:19.647Z,15.30
2017-10-04T10:39:47.248Z,15.30
2017-10-04T10:42:16.497Z,15.40
2017-10-04T10:44:44.096Z,15.40
2017-10-04T10:47:11.714Z,15.20
2017-10-04T10:49:39.322Z,15.20
2017-10-04T10:52:06.973Z,15.30
2017-10-04T10:54:34.578Z,15.20
2017-10-04T10:57:03.339Z,15.00
2017-10-04T10:59:31.215Z,15.00
2017-10-04T11:01:58.817Z,15.20
2017-10-04T11:04:26.544Z,15.20
2017-10-04T11:06:54.144Z,15.20
2017-10-04T11:09:21.837Z,15.20
2017-10-04T11:11:49.435Z,15.30
2017-10-04T11:14:17.056Z,15.20
2017-10-04T11:16:44.688Z,15.20
2017-10-04T11:19:12.317Z,15.20
2017-10-04T11:21:39.938Z,15.20
2017-10-04T11:24:07.584Z,15.20
2017-10-04T11:26:36.551Z,15.10
2017-10-04T11:29:04.971Z,15.00
2017-10-04T11:31:32.589Z,15.00
2017-10-04T11:34:00.955Z,14.90
2017-10-04T11:36:29.361Z,14.90
2017-10-04T11:38:56.956Z,14.90
2017-10-04T11:41:24.593Z,14.90
2017-10-04T11:43:52.187Z,15.00
2017-10-04T11:46:19.808Z,15.00
2017-10-04T11:48:47.439Z,14.90
2017-10-04T11:51:15.837Z,14.90
2017-10-04T11:53:43.460Z,14.90
2017-10-04T11:56:11.357Z,14.90
2017-10-04T11:58:41.162Z,14.70
2017-10-04T12:01:09.266Z,14.70
2017-10-04T12:03:37.427Z,14.60
2017-10-04T12:06:05.054Z,14.70
2017-10-04T12:08:32.686Z,14.70
2017-10-04T12:11:00.310Z,14.70
2017-10-04T12:13:28.869Z,14.70
2017-10-04T12:15:56.484Z,14.80
2017-10-04T12:18:24.152Z,14.90
2017-10-04T12:20:51.823Z,14.90
2017-10-04T12:23:19.457Z,14.90
2017-10-04T12:25:47.066Z,14.80
2017-10-04T12:28:15.544Z,14.80
2017-10-04T12:30:44.405Z,14.80
2017-10-04T12:33:12.025Z,14.80
2017-10-04T12:35:39.625Z,14.80
2017-10-04T12:38:07.280Z,14.90
2017-10-04T12:40:35.727Z,14.90
2017-10-04T12:43:04.353Z,15.00
2017-10-04T12:45:32.070Z,15.00
2017-10-04T12:48:00.480Z,15.00
2017-10-04T12:50:28.099Z,15.00
2017-10-04T12:52:56.483Z,15.00
2017-10-04T12:55:24.990Z,15.00
2017-10-04T12:57:52.608Z,15.00
2017-10-04T13:00:20.201Z,14.90
2017-10-04T13:02:48.783Z,14.90
2017-10-04T13:05:16.397Z,15.10
2017-10-04T13:07:44.017Z,15.10
2017-10-04T13:10:11.637Z,15.10
2017-10-04T13:12:39.276Z,15.20
2017-10-04T13:15:06.881Z,15.10
2017-10-04T13:17:35.266Z,15.10
2017-10-04T13:20:03.149Z,15.10
2017-10-04T13:22:30.781Z,15.00
2017-10-04T13:24:59.151Z,15.10
2017-10-04T13:27:27.551Z,15.10
2017-10-04T13:29:55.918Z,15.00
2017-10-04T13:32:24.308Z,15.10
2017-10-04T13:34:52.046Z,15.00
2017-10-04T13:37:19.678Z,15.10
2017-10-04T13:39:47.363Z,15.10
2017-10-04T13:42:15.019Z,14.90
2017-10-04T13:44:42.634Z,15.00
2017-10-04T13:47:10.267Z,14.90
2017-10-04T13:49:38.644Z,14.90
2017-10-04T13:52:07.053Z,14.90
2017-10-04T13:54:34.664Z,14.90
2017-10-04T13:57:02.316Z,14.90
2017-10-04T13:59:30.821Z,14.80
2017-10-04T14:01:58.425Z,14.80
2017-10-04T14:04:26.042Z,14.80
2017-10-04T14:06:55.964Z,14.90
2017-10-04T14:09:24.363Z,14.80
2017-10-04T14:11:51.959Z,14.80
2017-10-04T14:14:19.625Z,14.90
2017-10-04T14:16:48.046Z,14.90
2017-10-04T14:19:16.433Z,14.90
2017-10-04T14:21:44.827Z,14.80
2017-10-04T14:24:12.440Z,14.80
2017-10-04T14:26:40.037Z,14.90
2017-10-04T14:29:07.668Z,14.90
2017-10-04T14:31:35.286Z,14.90
2017-10-04T14:34:02.907Z,14.60
2017-10-04T14:36:31.267Z,14.70
2017-10-04T14:38:58.896Z,14.70
2017-10-04T14:41:26.516Z,14.80
2017-10-04T14:43:54.907Z,14.80
2017-10-04T14:46:22.520Z,14.80
2017-10-04T14:48:50.148Z,14.80
2017-10-04T14:51:17.752Z,14.80
2017-10-04T14:53:45.373Z,14.80
2017-10-04T14:56:12.972Z,14.80
2017-10-04T14:58:40.596Z,14.70
2017-10-04T15:01:08.191Z,14.70
2017-10-04T15:03:35.833Z,14.70
2017-10-04T15:06:03.457Z,14.60
2017-10-04T15:08:31.061Z,14.60
2017-10-04T15:10:59.494Z,14.60
2017-10-04T15:13:27.097Z,14.60
2017-10-04T15:15:54.720Z,14.60
2017-10-04T15:18:22.320Z,14.70
2017-10-04T15:20:49.955Z,14.50
2017-10-04T15:23:17.552Z,14.50
2017-10-04T15:25:45.419Z,14.50
2017-10-04T15:28:13.235Z,14.40
2017-10-04T15:30:40.882Z,14.60
2017-10-04T15:33:09.251Z,14.60
2017-10-04T15:35:36.884Z,14.60
2017-10-04T15:38:04.492Z,14.50
2017-10-04T15:40:32.117Z,14.50
2017-10-04T15:43:00.949Z,14.40
2017-10-04T15:45:28.590Z,14.40
2017-10-04T15:47:56.962Z,14.30
2017-10-04T15:50:24.580Z,14.20
2017-10-04T15:52:52.192Z,14.30
2017-10-04T15:55:19.842Z,14.20
2017-10-04T15:57:47.459Z,14.20
2017-10-04T16:00:15.132Z,14.10
2017-10-04T16:02:42.737Z,14.20
2017-10-04T16:05:11.156Z,14.30
2017-10-04T16:07:38.760Z,14.30
2017-10-04T16:10:07.749Z,14.40
2017-10-04T16:12:36.487Z,14.30
2017-10-04T16:15:04.498Z,14.20
2017-10-04T16:17:32.088Z,14.10
2017-10-04T16:19:59.746Z,14.20
2017-10-04T16:22:27.348Z,14.10
2017-10-04T16:24:54.957Z,14.10
2017-10-04T16:27:22.627Z,14.00
2017-10-04T16:29:50.229Z,14.10
2017-10-04T16:32:17.892Z,14.10
2017-10-04T16:34:45.581Z,14.10
2017-10-04T16:37:13.207Z,14.00
2017-10-04T16:39:40.808Z,13.90
2017-10-04T16:42:08.545Z,13.90
2017-10-04T16:44:36.185Z,13.90
2017-10-04T16:47:03.952Z,13.90
2017-10-04T16:49:31.660Z,14.00
2017-10-04T16:51:59.295Z,14.00
2017-10-04T16:54:26.893Z,13.90
2017-10-04T16:56:54.577Z,13.90
2017-10-04T16:59:22.940Z,13.90
2017-10-04T17:01:51.198Z,13.90
2017-10-04T17:04:18.801Z,13.80
2017-10-04T17:06:47.188Z,13.70
2017-10-04T17:09:14.836Z,13.70
2017-10-04T17:11:43.227Z,13.90
2017-10-04T17:14:10.845Z,13.90
2017-10-04T17:16:38.464Z,13.90
2017-10-04T17:19:06.160Z,13.90
2017-10-04T17:21:34.045Z,13.80
2017-10-04T17:24:02.376Z,13.80
2017-10-04T17:26:30.107Z,13.80
2017-10-04T17:28:58.468Z,13.80
2017-10-04T17:31:26.114Z,13.80
2017-10-04T17:33:53.737Z,13.80
2017-10-04T17:36:21.992Z,13.80
2017-10-04T17:38:49.592Z,13.80
2017-10-04T17:41:17.253Z,13.80
2017-10-04T17:43:44.860Z,13.80
2017-10-04T17:46:12.647Z,13.80
2017-10-04T17:48:40.640Z,13.80
2017-10-04T17:51:08.317Z,13.70
2017-10-04T17:53:35.960Z,13.50
2017-10-04T17:56:03.614Z,13.60
2017-10-04T17:58:31.272Z,13.60
2017-10-04T18:00:58.885Z,13.50
2017-10-04T18:03:26.535Z,13.60
2017-10-04T18:05:54.146Z,13.60
2017-10-04T18:08:21.857Z,13.60
2017-10-04T18:10:49.553Z,13.60
2017-10-04T18:13:17.995Z,13.70
2017-10-04T18:15:46.394Z,13.70
2017-10-04T18:18:14.036Z,13.70
2017-10-04T18:20:41.671Z,13.60
2017-10-04T18:23:09.323Z,13.70
2017-10-04T18:25:36.931Z,13.70
2017-10-04T18:28:04.579Z,13.60
2017-10-04T18:30:32.183Z,13.60
2017-10-04T18:33:00.573Z,13.50
2017-10-04T18:35:28.181Z,13.50
2017-10-04T18:37:55.803Z,13.60
2017-10-04T18:40:23.447Z,13.70
2017-10-04T18:42:51.836Z,13.70
2017-10-04T18:45:21.430Z,13.60
2017-10-04T18:47:49.052Z,13.60
2017-10-04T18:50:17.551Z,13.60
2017-10-04T18:52:45.174Z,13.60
2017-10-04T18:55:14.018Z,13.70
2017-10-04T18:57:42.376Z,13.50
2017-10-04T19:00:10.018Z,13.50
2017-10-04T19:02:38.037Z,13.60
2017-10-04T19:05:06.432Z,13.60
2017-10-04T19:07:34.023Z,13.60
2017-10-04T19:10:02.591Z,13.60
2017-10-04T19:12:30.820Z,13.60
2017-10-04T19:14:58.696Z,13.60
2017-10-04T19:17:27.061Z,13.60
2017-10-04T19:19:54.704Z,13.60
2017-10-04T19:22:22.804Z,13.60
2017-10-04T19:24:51.184Z,13.50
2017-10-04T19:27:19.900Z,13.60
2017-10-04T19:29:48.284Z,13.60
2017-10-04T19:32:16.351Z,13.60
2017-10-04T19:34:45.216Z,13.60
2017-10-04T19:37:13.032Z,13.70
2017-10-04T19:39:40.653Z,13.60
2017-10-04T19:42:09.021Z,13.50
2017-10-04T19:44:37.593Z,13.50
2017-10-04T19:47:06.306Z,13.50
2017-10-04T19:49:34.028Z,13.60
2017-10-04T19:52:01.665Z,13.40
2017-10-04T19:54:30.674Z,13.40
2017-10-04T19:56:58.305Z,13.50
2017-10-04T19:59:25.920Z,13.50
2017-10-04T20:01:53.592Z,13.50
2017-10-04T20:04:23.052Z,13.40
2017-10-04T20:06:51.438Z,13.40
2017-10-04T20:09:19.114Z,13.40
2017-10-04T20:11:46.862Z,13.40
2017-10-04T20:14:14.939Z,13.40
2017-10-04T20:16:42.561Z,13.50
2017-10-04T20:19:10.166Z,13.60
2017-10-04T20:21:37.921Z,13.60
2017-10-04T20:24:08.377Z,13.60
2017-10-04T20:26:36.048Z,13.60
2017-10-04T20:29:04.434Z,13.60
2017-10-04T20:31:32.846Z,13.60
2017-10-04T20:34:01.917Z,13.60
2017-10-04T20:36:29.643Z,13.70
2017-10-04T20:38:57.245Z,13.60
2017-10-04T20:41:26.121Z,13.60
2017-10-04T20:43:54.478Z,13.50
2017-10-04T20:46:22.113Z,13.50
2017-10-04T20:48:49.717Z,13.40
2017-10-04T20:51:19.327Z,13.30
2017-10-04T20:53:47.847Z,13.30
2017-10-04T20:56:15.484Z,13.30
2017-10-04T20:58:43.089Z,13.40
2017-10-04T21:01:10.717Z,13.40
2017-10-04T21:03:38.321Z,13.40
2017-10-04T21:06:07.075Z,13.40
2017-10-04T21:08:35.084Z,13.50
2017-10-04T21:11:02.673Z,13.50
2017-10-04T21:13:32.364Z,13.40
2017-10-04T21:16:00.942Z,13.30
2017-10-04T21:18:29.457Z,13.30
2017-10-04T21:20:58.264Z,13.40
2017-10-04T21:23:25.884Z,13.40
2017-10-04T21:25:53.484Z,13.40
2017-10-04T21:28:23.444Z,13.50
2017-10-04T21:30:51.045Z,13.50
2017-10-04T21:33:18.677Z,13.50
2017-10-04T21:35:46.277Z,13.50
2017-10-04T21:38:15.315Z,13.50
2017-10-04T21:40:43.712Z,13.50
2017-10-04T21:43:12.196Z,13.50
2017-10-04T21:45:40.607Z,13.60
2017-10-04T21:48:08.220Z,13.60
2017-10-04T21:50:35.841Z,13.60
2017-10-04T21:53:03.431Z,13.50
2017-10-04T21:55:31.064Z,13.40
2017-10-04T21:57:59.443Z,13.60
2017-10-04T22:00:27.097Z,13.60
2017-10-04T22:02:54.699Z,13.50
2017-10-04T22:05:22.536Z,13.60
2017-10-04T22:07:50.136Z,13.50
2017-10-04T22:10:17.757Z,13.60
2017-10-04T22:12:45.886Z,13.60
2017-10-04T22:15:17.932Z,13.50
2017-10-04T22:17:45.529Z,13.50
2017-10-04T22:20:13.162Z,13.50
2017-10-04T22:22:40.764Z,13.50
2017-10-04T22:25:08.472Z,13.40
2017-10-04T22:27:36.061Z,13.40
2017-10-04T22:30:03.678Z,13.40
2017-10-04T22:32:31.298Z,13.30
2017-10-04T22:34:58.895Z,13.50
2017-10-04T22:37:26.516Z,13.50
2017-10-04T22:39:54.889Z,13.50
2017-10-04T22:42:23.278Z,13.50
2017-10-04T22:44:50.890Z,13.50
2017-10-04T22:47:18.525Z,13.60
2017-10-04T22:49:46.123Z,13.40
2017-10-04T22:52:13.749Z,13.50
2017-10-04T22:54:41.385Z,13.50
2017-10-04T22:57:09.014Z,13.40
2017-10-04T22:59:36.617Z,13.40
2017-10-04T23:02:04.254Z,13.40
2017-10-04T23:04:33.859Z,13.50
2017-10-04T23:07:02.253Z,13.50
2017-10-04T23:09:29.894Z,13.50
2017-10-04T23:11:58.284Z,13.40
2017-10-04T23:14:26.672Z,13.50
2017-10-04T23:16:55.614Z,13.50
2017-10-04T23:19:23.275Z,13.50
2017-10-04T23:21:50.934Z,13.50
2017-10-04T23:24:18.799Z,13.60
2017-10-04T23:26:46.396Z,13.50
2017-10-04T23:29:14.025Z,13.50
2017-10-04T23:31:41.624Z,13.50
2017-10-04T23:34:10.022Z,13.60
2017-10-04T23:36:37.615Z,13.60
2017-10-04T23:39:05.253Z,13.50
2017-10-04T23:41:33.991Z,13.40
2017-10-04T23:44:01.944Z,13.40
2017-10-04T23:46:29.554Z,13.40
2017-10-04T23:48:57.194Z,13.50
2017-10-04T23:51:24.803Z,13.40
2017-10-04T23:53:52.422Z,13.40
2017-10-04T23:56:20.780Z,13.50
2017-10-04T23:58:48.430Z,13.50
